createdAt,value
2023-02-06T00:01:29.369Z,8.63
2023-02-06T00:03:57.354Z,9.37
2023-02-06T00:06:26.756Z,8.17
2023-02-06T00:08:54.837Z,7.23
2023-02-06T00:11:23.342Z,7.23
2023-02-06T00:13:51.571Z,7.07
2023-02-06T00:16:21.308Z,6.87
2023-02-06T00:18:49.626Z,7.10
2023-02-06T00:21:20.200Z,7.97
2023-02-06T00:23:50.380Z,8.17
2023-02-06T00:26:18.898Z,8.40
2023-02-06T00:28:47.784Z,7.83
2023-02-06T00:31:16.903Z,7.60
2023-02-06T00:33:45.205Z,7.70
2023-02-06T00:36:13.215Z,7.60
2023-02-06T00:38:41.536Z,6.73
2023-02-06T00:41:11.078Z,7.13
2023-02-06T00:43:39.094Z,7.63
2023-02-06T00:46:07.319Z,6.00
2023-02-06T00:48:35.415Z,6.10
2023-02-06T00:51:03.568Z,6.47
2023-02-06T00:53:31.577Z,6.50
2023-02-06T00:55:59.589Z,7.87
2023-02-06T00:58:28.945Z,6.93
2023-02-06T01:00:56.933Z,7.50
2023-02-06T01:03:24.922Z,7.60
2023-02-06T01:05:52.986Z,7.50
2023-02-06T01:08:20.965Z,6.37
2023-02-06T01:10:48.943Z,6.50
2023-02-06T01:13:16.912Z,5.90
2023-02-06T01:15:46.581Z,5.67
2023-02-06T01:18:15.309Z,5.73
2023-02-06T01:20:43.310Z,4.23
2023-02-06T01:23:11.348Z,4.90
2023-02-06T01:25:39.529Z,4.50
2023-02-06T01:28:07.590Z,4.87
2023-02-06T01:30:35.995Z,4.60
2023-02-06T01:33:05.495Z,4.17
2023-02-06T01:35:33.646Z,4.40
2023-02-06T01:38:01.833Z,4.00
2023-02-06T01:40:29.826Z,4.33
2023-02-06T01:42:57.844Z,3.93
2023-02-06T01:45:43.377Z,3.67
2023-02-06T01:48:18.010Z,4.00
2023-02-06T01:50:50.288Z,4.27
2023-02-06T01:53:19.748Z,4.27
2023-02-06T01:55:50.814Z,4.80
2023-02-06T01:58:25.267Z,4.47
2023-02-06T02:00:53.473Z,4.40
2023-02-06T02:03:23.036Z,4.13
2023-02-06T02:05:52.603Z,4.00
2023-02-06T02:08:26.657Z,3.93
2023-02-06T02:10:54.764Z,4.10
2023-02-06T02:13:22.744Z,3.67
2023-02-06T02:15:59.637Z,3.33
2023-02-06T02:18:51.706Z,3.73
2023-02-06T02:21:59.779Z,3.40
2023-02-06T02:24:42.885Z,3.00
2023-02-06T02:27:39.617Z,4.30
2023-02-06T02:30:57.324Z,3.10
2023-02-06T02:33:47.733Z,4.00
2023-02-06T02:36:23.086Z,2.97
2023-02-06T02:38:59.712Z,3.17
2023-02-06T02:41:34.768Z,3.20
2023-02-06T02:44:08.992Z,3.53
2023-02-06T02:46:41.312Z,3.43
2023-02-06T02:49:12.956Z,3.60
2023-02-06T02:51:43.152Z,3.40
2023-02-06T02:54:11.366Z,3.73
2023-02-06T02:56:39.603Z,2.80
2023-02-06T02:59:12.465Z,3.40
2023-02-06T03:01:46.764Z,5.33
2023-02-06T03:04:18.235Z,3.77
2023-02-06T03:07:10.008Z,4.83
2023-02-06T03:09:51.412Z,3.33
2023-02-06T03:12:24.239Z,3.63
2023-02-06T03:14:57.760Z,3.43
2023-02-06T03:17:35.017Z,3.30
2023-02-06T03:20:05.931Z,3.57
2023-02-06T03:22:37.304Z,3.60
2023-02-06T03:25:09.835Z,3.80
2023-02-06T03:27:40.438Z,3.40
2023-02-06T03:30:10.543Z,3.13
2023-02-06T03:32:43.743Z,3.13
2023-02-06T03:35:17.224Z,4.00
2023-02-06T03:37:47.394Z,3.17
2023-02-06T03:40:16.603Z,3.43
2023-02-06T03:42:51.361Z,3.47
2023-02-06T03:45:25.357Z,3.73
2023-02-06T03:47:56.071Z,3.40
2023-02-06T03:50:26.583Z,3.43
2023-02-06T03:52:59.390Z,3.17
2023-02-06T03:55:27.392Z,3.23
2023-02-06T03:57:59.957Z,3.30
2023-02-06T04:00:29.994Z,3.77
2023-02-06T04:02:59.376Z,4.87
2023-02-06T04:05:28.301Z,3.27
2023-02-06T04:07:57.669Z,3.57
2023-02-06T04:10:26.516Z,3.30
2023-02-06T04:12:54.890Z,3.30
2023-02-06T04:15:23.471Z,3.13
2023-02-06T04:17:59.832Z,3.87
2023-02-06T04:20:28.894Z,3.67
2023-02-06T04:22:58.682Z,3.30
2023-02-06T04:25:27.134Z,4.03
2023-02-06T04:27:55.189Z,3.50
2023-02-06T04:30:23.231Z,3.20
2023-02-06T04:32:51.327Z,3.60
2023-02-06T04:35:19.616Z,4.10
2023-02-06T04:37:47.574Z,3.77
2023-02-06T04:40:17.138Z,3.37
2023-02-06T04:42:45.075Z,4.47
2023-02-06T04:45:13.365Z,3.67
2023-02-06T04:47:41.452Z,3.47
2023-02-06T04:50:10.497Z,3.70
2023-02-06T04:52:38.594Z,4.10
2023-02-06T04:55:07.057Z,4.57
2023-02-06T04:57:36.409Z,4.17
2023-02-06T05:00:04.924Z,3.87
2023-02-06T05:02:37.433Z,3.97
2023-02-06T05:05:09.424Z,3.80
2023-02-06T05:07:37.419Z,3.40
2023-02-06T05:10:05.831Z,4.13
2023-02-06T05:12:33.782Z,3.97
2023-02-06T05:15:03.133Z,4.53
2023-02-06T05:17:31.275Z,3.30
2023-02-06T05:19:59.741Z,3.70
2023-02-06T05:22:27.847Z,3.40
2023-02-06T05:24:55.783Z,3.73
2023-02-06T05:27:24.600Z,3.40
2023-02-06T05:29:52.855Z,4.10
2023-02-06T05:32:22.158Z,3.67
2023-02-06T05:34:50.124Z,3.83
2023-02-06T05:37:18.106Z,3.40
2023-02-06T05:39:46.083Z,4.27
2023-02-06T05:42:14.047Z,3.60
2023-02-06T05:44:42.044Z,3.57
2023-02-06T05:47:10.072Z,4.27
2023-02-06T05:49:39.504Z,3.70
2023-02-06T05:52:07.498Z,3.63
2023-02-06T05:54:35.478Z,4.87
2023-02-06T05:57:04.159Z,4.00
2023-02-06T05:59:32.101Z,3.90
2023-02-06T06:02:00.179Z,4.27
2023-02-06T06:04:28.327Z,4.60
2023-02-06T06:06:57.968Z,4.00
2023-02-06T06:09:25.899Z,4.57
2023-02-06T06:11:53.872Z,4.30
2023-02-06T06:14:21.834Z,4.40
2023-02-06T06:16:49.826Z,4.37
2023-02-06T06:19:17.813Z,3.30
2023-02-06T06:21:45.775Z,3.80
2023-02-06T06:24:15.070Z,4.80
2023-02-06T06:26:43.075Z,3.97
2023-02-06T06:29:11.155Z,4.00
2023-02-06T06:31:39.238Z,5.20
2023-02-06T06:34:07.215Z,4.10
2023-02-06T06:36:35.232Z,4.10
2023-02-06T06:39:03.242Z,4.33
2023-02-06T06:41:32.620Z,3.80
2023-02-06T06:44:00.817Z,3.73
2023-02-06T06:46:28.750Z,4.90
2023-02-06T06:48:56.720Z,4.43
2023-02-06T06:51:26.699Z,4.67
2023-02-06T06:53:54.658Z,4.70
2023-02-06T06:56:22.645Z,5.13
2023-02-06T06:58:52.123Z,4.80
2023-02-06T07:01:20.363Z,4.80
2023-02-06T07:03:48.442Z,4.37
2023-02-06T07:06:17.224Z,4.37
2023-02-06T07:08:45.218Z,4.47
2023-02-06T07:11:15.256Z,4.87
2023-02-06T07:13:43.535Z,5.47
2023-02-06T07:16:13.462Z,4.83
2023-02-06T07:18:43.036Z,4.93
2023-02-06T07:21:13.736Z,5.47
2023-02-06T07:23:41.699Z,5.90
2023-02-06T07:26:09.738Z,4.50
2023-02-06T07:28:38.014Z,4.70
2023-02-06T07:31:07.940Z,4.20
2023-02-06T07:33:37.638Z,4.80
2023-02-06T07:36:05.899Z,5.00
2023-02-06T07:38:33.880Z,4.47
2023-02-06T07:41:03.162Z,4.50
2023-02-06T07:43:31.570Z,4.53
2023-02-06T07:46:01.220Z,5.23
2023-02-06T07:48:29.778Z,4.73
2023-02-06T07:51:04.834Z,4.50
2023-02-06T07:53:32.886Z,5.13
2023-02-06T07:56:01.000Z,5.07
2023-02-06T07:58:29.144Z,4.43
2023-02-06T08:00:59.688Z,4.90
2023-02-06T08:03:27.854Z,5.30
2023-02-06T08:05:55.844Z,5.90
2023-02-06T08:08:25.707Z,6.17
2023-02-06T08:10:53.764Z,6.83
2023-02-06T08:13:21.785Z,6.80
2023-02-06T08:15:49.897Z,6.83
2023-02-06T08:18:17.962Z,6.80
2023-02-06T08:20:46.037Z,6.17
2023-02-06T08:23:13.999Z,5.67
2023-02-06T08:25:43.428Z,5.20
2023-02-06T08:28:14.872Z,5.80
2023-02-06T08:30:43.170Z,5.97
2023-02-06T08:33:11.272Z,5.90
2023-02-06T08:35:39.385Z,6.40
2023-02-06T08:38:07.372Z,6.43
2023-02-06T08:40:35.357Z,5.93
2023-02-06T08:43:04.881Z,7.10
2023-02-06T08:45:33.386Z,7.63
2023-02-06T08:48:01.545Z,9.87
2023-02-06T08:50:29.579Z,9.63
2023-02-06T08:52:57.583Z,7.37
2023-02-06T08:55:25.592Z,6.13
2023-02-06T08:57:53.620Z,6.10
2023-02-06T09:00:23.682Z,7.10
2023-02-06T09:02:53.794Z,7.63
2023-02-06T09:05:22.280Z,8.73
2023-02-06T09:07:50.679Z,7.83
2023-02-06T09:10:26.991Z,7.90
2023-02-06T09:12:55.832Z,7.07
2023-02-06T09:15:25.230Z,6.93
2023-02-06T09:17:53.412Z,6.90
2023-02-06T09:20:22.573Z,7.87
2023-02-06T09:22:50.617Z,7.40
2023-02-06T09:25:18.763Z,7.27
2023-02-06T09:27:47.241Z,6.57
2023-02-06T09:30:15.767Z,8.17
2023-02-06T09:32:45.379Z,8.40
2023-02-06T09:35:13.496Z,8.83
2023-02-06T09:37:41.477Z,8.17
2023-02-06T09:40:13.358Z,9.17
2023-02-06T09:42:42.859Z,8.40
2023-02-06T09:45:16.745Z,8.90
2023-02-06T09:47:50.018Z,7.03
2023-02-06T09:50:27.842Z,8.50
2023-02-06T09:53:07.489Z,6.73
2023-02-06T09:55:42.208Z,7.23
2023-02-06T09:58:22.488Z,7.77
2023-02-06T10:00:54.676Z,8.20
2023-02-06T10:03:45.968Z,9.33
2023-02-06T10:06:20.501Z,10.77
2023-02-06T10:08:56.972Z,9.97
2023-02-06T10:11:36.598Z,10.37
2023-02-06T10:14:08.045Z,10.03
2023-02-06T10:16:41.905Z,8.83
2023-02-06T10:19:18.716Z,8.37
2023-02-06T10:21:51.005Z,8.07
2023-02-06T10:24:29.047Z,8.17
2023-02-06T10:27:02.284Z,9.50
2023-02-06T10:29:32.998Z,9.60
2023-02-06T10:32:19.786Z,8.73
2023-02-06T10:35:12.340Z,9.07
2023-02-06T10:38:04.934Z,9.50
2023-02-06T10:40:41.693Z,9.63
2023-02-06T10:43:19.004Z,9.93
2023-02-06T10:45:52.782Z,8.97
2023-02-06T10:48:31.645Z,8.67
2023-02-06T10:51:11.070Z,9.23
2023-02-06T10:53:46.642Z,8.50
2023-02-06T10:56:17.261Z,9.43
2023-02-06T10:58:51.168Z,10.07
2023-02-06T11:01:26.070Z,10.53
2023-02-06T11:03:59.883Z,9.97
2023-02-06T11:06:30.841Z,11.70
2023-02-06T11:08:59.191Z,11.93
2023-02-06T11:11:29.794Z,12.20
2023-02-06T11:14:01.705Z,11.27
2023-02-06T11:16:30.975Z,10.73
2023-02-06T11:19:02.990Z,11.00
2023-02-06T11:21:52.289Z,9.23
2023-02-06T11:24:22.441Z,9.30
2023-02-06T11:26:53.932Z,10.13
2023-02-06T11:29:24.985Z,9.67
2023-02-06T11:31:56.934Z,10.30
2023-02-06T11:34:28.793Z,11.53
2023-02-06T11:37:00.159Z,10.60
2023-02-06T11:39:31.463Z,10.70
2023-02-06T11:42:01.809Z,11.13
2023-02-06T11:44:35.822Z,11.40
2023-02-06T11:47:22.976Z,10.73
2023-02-06T11:49:51.468Z,10.97
2023-02-06T11:52:33.305Z,11.03
2023-02-06T11:55:02.989Z,11.57
2023-02-06T11:57:33.433Z,11.30
2023-02-06T12:00:05.505Z,10.80
2023-02-06T12:02:35.599Z,9.97
2023-02-06T12:05:11.582Z,10.63
2023-02-06T12:07:45.455Z,11.50
2023-02-06T12:10:16.447Z,10.70
2023-02-06T12:12:49.645Z,12.73
2023-02-06T12:15:44.796Z,13.27
2023-02-06T12:18:14.608Z,12.60
2023-02-06T12:20:49.944Z,12.43
2023-02-06T12:23:25.464Z,12.20
2023-02-06T12:25:57.543Z,10.83
2023-02-06T12:28:32.196Z,10.17
2023-02-06T12:31:04.786Z,12.63
2023-02-06T12:33:38.482Z,11.70
2023-02-06T12:36:12.831Z,12.00
2023-02-06T12:38:48.002Z,11.90
2023-02-06T12:41:43.977Z,11.37
2023-02-06T12:44:22.895Z,11.53
2023-02-06T12:46:58.205Z,11.37
2023-02-06T12:49:31.927Z,11.93
2023-02-06T12:52:05.558Z,11.33
2023-02-06T12:54:41.527Z,10.87
2023-02-06T12:57:16.928Z,12.80
2023-02-06T13:00:16.511Z,12.73
2023-02-06T13:03:17.183Z,12.67
2023-02-06T13:05:48.029Z,12.27
2023-02-06T13:08:18.622Z,12.90
2023-02-06T13:10:50.184Z,12.30
2023-02-06T13:13:30.810Z,12.77
2023-02-06T13:16:01.237Z,12.30
2023-02-06T13:18:53.951Z,12.53
2023-02-06T13:21:25.171Z,13.37
2023-02-06T13:24:14.524Z,13.10
2023-02-06T13:27:03.217Z,12.00
2023-02-06T13:29:33.474Z,11.63
2023-02-06T13:32:42.946Z,12.07
2023-02-06T13:35:29.126Z,11.43
2023-02-06T13:38:28.399Z,11.50
2023-02-06T13:41:19.172Z,11.83
2023-02-06T13:43:55.023Z,12.00
2023-02-06T13:46:25.542Z,11.70
2023-02-06T13:49:29.152Z,13.00
2023-02-06T13:52:06.489Z,12.43
2023-02-06T13:55:03.193Z,13.33
2023-02-06T13:57:51.713Z,12.17
2023-02-06T14:00:23.196Z,12.07
2023-02-06T14:02:54.743Z,13.87
2023-02-06T14:05:26.716Z,11.97
2023-02-06T14:08:02.844Z,13.80
2023-02-06T14:11:29.421Z,12.77
2023-02-06T14:14:17.189Z,11.60
2023-02-06T14:16:55.476Z,12.73
2023-02-06T14:19:32.230Z,12.47
2023-02-06T14:22:08.859Z,12.97
2023-02-06T14:25:04.549Z,11.80
2023-02-06T14:27:48.378Z,11.20
2023-02-06T14:30:27.952Z,11.63
2023-02-06T14:33:08.908Z,10.93
2023-02-06T14:35:58.601Z,11.23
2023-02-06T14:38:53.412Z,10.67
2023-02-06T14:41:21.726Z,9.47
2023-02-06T14:43:51.760Z,9.80
2023-02-06T14:46:21.021Z,10.37
2023-02-06T14:48:53.180Z,9.60
2023-02-06T14:51:25.841Z,9.90
2023-02-06T14:53:56.603Z,9.60
2023-02-06T14:56:31.361Z,10.43
2023-02-06T14:59:15.243Z,11.07
2023-02-06T15:01:44.875Z,10.83
2023-02-06T15:04:16.692Z,10.07
2023-02-06T15:06:50.836Z,10.57
2023-02-06T15:09:28.182Z,10.50
2023-02-06T15:11:57.535Z,10.40
2023-02-06T15:14:28.219Z,10.87
2023-02-06T15:16:59.747Z,10.70
2023-02-06T15:19:31.187Z,11.30
2023-02-06T15:22:02.542Z,9.93
2023-02-06T15:24:55.755Z,9.37
2023-02-06T15:27:28.955Z,10.40
2023-02-06T15:29:58.014Z,9.93
2023-02-06T15:32:32.097Z,10.10
2023-02-06T15:35:03.011Z,9.97
2023-02-06T15:37:33.533Z,11.10
2023-02-06T15:40:19.605Z,10.87
2023-02-06T15:42:48.861Z,10.60
2023-02-06T15:45:20.948Z,10.57
2023-02-06T15:47:50.400Z,10.67
2023-02-06T15:50:21.700Z,10.27
2023-02-06T15:52:49.797Z,13.10
2023-02-06T15:55:27.152Z,28.97
2023-02-06T15:57:56.616Z,26.10
2023-02-06T16:00:27.649Z,25.97
2023-02-06T16:03:02.694Z,20.67
2023-02-06T16:05:36.357Z,16.73
2023-02-06T16:08:05.911Z,14.90
2023-02-06T16:10:38.150Z,19.20
2023-02-06T16:13:11.533Z,20.83
2023-02-06T16:15:40.993Z,19.97
2023-02-06T16:18:26.792Z,17.97
2023-02-06T16:21:12.826Z,13.60
2023-02-06T16:23:48.572Z,12.73
2023-02-06T16:26:19.062Z,13.80
2023-02-06T16:29:00.212Z,15.50
2023-02-06T16:31:30.006Z,15.03
2023-02-06T16:34:03.088Z,14.23
2023-02-06T16:36:33.596Z,13.00
2023-02-06T16:39:04.696Z,11.80
2023-02-06T16:41:34.527Z,13.03
2023-02-06T16:44:03.493Z,13.23
2023-02-06T16:46:32.112Z,12.53
2023-02-06T16:49:00.588Z,12.20
2023-02-06T16:51:30.916Z,11.40
2023-02-06T16:54:00.405Z,11.03
2023-02-06T16:56:28.436Z,13.63
2023-02-06T16:58:57.428Z,13.53
2023-02-06T17:01:29.584Z,13.00
2023-02-06T17:03:57.890Z,13.23
2023-02-06T17:06:28.204Z,13.50
2023-02-06T17:08:58.709Z,12.20
2023-02-06T17:11:28.075Z,12.97
2023-02-06T17:13:56.432Z,15.67
2023-02-06T17:16:28.977Z,16.30
2023-02-06T17:19:01.923Z,14.70
2023-02-06T17:21:37.275Z,12.83
2023-02-06T17:24:10.890Z,13.53
2023-02-06T17:26:40.668Z,13.73
2023-02-06T17:29:08.646Z,14.23
2023-02-06T17:31:36.710Z,14.47
2023-02-06T17:34:04.723Z,14.27
2023-02-06T17:36:39.501Z,14.97
2023-02-06T17:39:08.199Z,14.43
2023-02-06T17:41:36.298Z,13.20
2023-02-06T17:44:06.119Z,12.73
2023-02-06T17:46:34.145Z,11.63
2023-02-06T17:49:02.172Z,10.30
2023-02-06T17:51:30.159Z,10.73
2023-02-06T17:53:59.077Z,12.27
2023-02-06T17:56:27.543Z,11.57
2023-02-06T17:58:55.504Z,10.90
2023-02-06T18:01:25.339Z,10.50
2023-02-06T18:03:53.769Z,10.83
2023-02-06T18:06:22.382Z,11.03
2023-02-06T18:08:50.358Z,12.10
2023-02-06T18:11:20.309Z,13.37
2023-02-06T18:13:49.923Z,20.13
2023-02-06T18:16:19.869Z,16.30
2023-02-06T18:18:49.616Z,14.57
2023-02-06T18:21:19.981Z,13.37
2023-02-06T18:23:49.112Z,11.70
2023-02-06T18:26:17.928Z,12.57
2023-02-06T18:28:46.279Z,12.17
2023-02-06T18:31:23.435Z,11.33
2023-02-06T18:33:53.209Z,11.53
2023-02-06T18:36:22.590Z,11.47
2023-02-06T18:38:50.615Z,12.57
2023-02-06T18:41:36.240Z,13.53
2023-02-06T18:44:06.152Z,17.50
2023-02-06T18:46:34.639Z,14.93
2023-02-06T18:49:04.157Z,13.57
2023-02-06T18:51:32.212Z,14.43
2023-02-06T18:54:00.810Z,13.10
2023-02-06T18:56:29.240Z,12.77
2023-02-06T18:58:57.254Z,12.83
2023-02-06T19:01:27.061Z,11.93
2023-02-06T19:03:55.363Z,12.43
2023-02-06T19:06:28.946Z,13.50
2023-02-06T19:08:57.145Z,12.07
2023-02-06T19:11:25.512Z,12.90
2023-02-06T19:13:53.950Z,12.30
2023-02-06T19:16:22.571Z,11.43
2023-02-06T19:18:50.694Z,12.97
2023-02-06T19:21:21.326Z,12.97
2023-02-06T19:23:56.240Z,13.00
2023-02-06T19:26:25.434Z,12.43
2023-02-06T19:28:53.966Z,13.50
2023-02-06T19:31:23.998Z,12.33
2023-02-06T19:33:53.126Z,13.90
2023-02-06T19:36:22.364Z,12.60
2023-02-06T19:38:55.196Z,13.50
2023-02-06T19:41:26.126Z,12.67
2023-02-06T19:43:55.632Z,13.90
2023-02-06T19:46:26.758Z,13.83
2023-02-06T19:48:55.975Z,12.83
2023-02-06T19:51:26.075Z,13.27
2023-02-06T19:53:57.180Z,14.37
2023-02-06T19:56:30.296Z,13.50
2023-02-06T19:58:59.885Z,13.13
2023-02-06T20:01:30.271Z,14.10
2023-02-06T20:03:59.035Z,13.10
2023-02-06T20:06:28.351Z,14.70
2023-02-06T20:08:58.634Z,14.00
2023-02-06T20:11:27.060Z,13.43
2023-02-06T20:13:55.752Z,12.83
2023-02-06T20:16:26.095Z,13.13
2023-02-06T20:18:55.090Z,13.57
2023-02-06T20:21:26.733Z,12.80
2023-02-06T20:23:56.463Z,13.43
2023-02-06T20:26:28.837Z,12.90
2023-02-06T20:28:57.276Z,13.10
2023-02-06T20:31:25.378Z,13.30
2023-02-06T20:33:53.598Z,13.27
2023-02-06T20:36:23.100Z,11.63
2023-02-06T20:38:52.368Z,12.13
2023-02-06T20:41:21.652Z,12.57
2023-02-06T20:43:51.145Z,12.73
2023-02-06T20:46:20.873Z,14.80
2023-02-06T20:48:54.443Z,15.50
2023-02-06T20:51:22.692Z,15.80
2023-02-06T20:53:51.594Z,14.17
2023-02-06T20:56:20.491Z,13.50
2023-02-06T20:58:51.108Z,14.33
2023-02-06T21:01:23.035Z,13.03
2023-02-06T21:03:53.306Z,13.20
2023-02-06T21:06:23.004Z,13.07
2023-02-06T21:08:56.904Z,12.73
2023-02-06T21:11:29.333Z,12.63
2023-02-06T21:14:00.567Z,11.83
2023-02-06T21:16:29.936Z,11.83
2023-02-06T21:18:59.171Z,11.77
2023-02-06T21:21:27.705Z,11.50
2023-02-06T21:23:56.700Z,11.80
2023-02-06T21:26:25.025Z,11.57
2023-02-06T21:28:53.494Z,11.93
2023-02-06T21:31:25.900Z,12.63
2023-02-06T21:33:54.226Z,13.80
2023-02-06T21:36:22.884Z,14.37
2023-02-06T21:38:50.896Z,14.77
2023-02-06T21:41:20.068Z,15.50
2023-02-06T21:43:48.162Z,15.83
2023-02-06T21:46:16.155Z,15.00
2023-02-06T21:48:45.597Z,14.37
2023-02-06T21:51:17.228Z,13.33
2023-02-06T21:53:46.259Z,13.43
2023-02-06T21:56:17.003Z,13.23
2023-02-06T21:58:45.014Z,13.20
2023-02-06T22:01:16.419Z,14.23
2023-02-06T22:03:47.090Z,13.37
2023-02-06T22:06:16.794Z,13.37
2023-02-06T22:08:48.614Z,13.90
2023-02-06T22:11:18.587Z,14.00
2023-02-06T22:13:48.015Z,13.50
2023-02-06T22:16:18.257Z,13.10
2023-02-06T22:18:48.201Z,13.87
2023-02-06T22:21:19.309Z,13.53
2023-02-06T22:23:48.556Z,13.07
2023-02-06T22:26:19.252Z,13.43
2023-02-06T22:28:48.001Z,12.80
2023-02-06T22:31:18.559Z,14.40
2023-02-06T22:33:48.392Z,14.60
2023-02-06T22:36:19.098Z,16.40
2023-02-06T22:38:48.864Z,16.20
2023-02-06T22:41:17.909Z,16.07
2023-02-06T22:43:47.225Z,15.47
2023-02-06T22:46:20.551Z,14.20
2023-02-06T22:48:50.873Z,14.00
2023-02-06T22:51:20.030Z,13.40
2023-02-06T22:53:48.641Z,14.17
2023-02-06T22:56:36.915Z,14.77
2023-02-06T22:59:07.632Z,14.50
2023-02-06T23:01:38.487Z,14.43
2023-02-06T23:04:11.598Z,14.67
2023-02-06T23:06:39.626Z,13.97
2023-02-06T23:09:09.347Z,14.03
2023-02-06T23:11:37.360Z,14.40
2023-02-06T23:14:07.017Z,14.37
2023-02-06T23:16:36.161Z,14.83
2023-02-06T23:19:05.861Z,14.27
2023-02-06T23:21:37.148Z,14.57
2023-02-06T23:24:06.017Z,15.23
2023-02-06T23:26:34.906Z,16.17
2023-02-06T23:29:06.096Z,15.00
2023-02-06T23:31:34.709Z,15.00
2023-02-06T23:34:03.120Z,15.67
2023-02-06T23:36:31.177Z,16.30
2023-02-06T23:39:02.121Z,16.80
2023-02-06T23:41:30.590Z,15.80
2023-02-06T23:44:00.578Z,15.30
2023-02-06T23:46:30.918Z,16.83
2023-02-06T23:48:59.622Z,16.10
2023-02-06T23:51:28.486Z,16.30
2023-02-06T23:53:56.561Z,16.03
2023-02-06T23:56:29.066Z,16.90
2023-02-06T23:58:58.562Z,16.83
